Terminal Aerodrome Forecast
Issued by NWS

Home | Current Version | Previous Version | Text Only | Print | Product List | Glossary On
Versions: 1 2 3 4 5 6 7 8 9 10 11 12 13 14 15 16 17 18 19 20
000
FTUS41 KPHI 222325
TAFMIV
TAF
KMIV 222325Z 2300/2324 21004KT P6SM SCT090
     FM230500 25002KT P6SM SCT050 BKN090
      TEMPO 2308/2312 6SM BR
     FM231600 24012KT 3SM SHRA BKN035
     FM232200 24013KT 6SM -SHRA BKN040=

USA.gov is the U.S. government's official web portal to all federal, state and local government web resources and services.